sensor_id;sensor_type;location;lat;lon;timestamp;temperature;humidity
15105;DHT22;7653;48.994;9.212;2023-01-13T00:00:23;10.70;37.50
15105;DHT22;7653;48.994;9.212;2023-01-13T00:02:49;10.70;37.50
15105;DHT22;7653;48.994;9.212;2023-01-13T00:05:14;10.70;37.80
15105;DHT22;7653;48.994;9.212;2023-01-13T00:07:40;10.70;37.70
15105;DHT22;7653;48.994;9.212;2023-01-13T00:10:09;10.70;38.50
15105;DHT22;7653;48.994;9.212;2023-01-13T00:12:40;10.60;38.10
15105;DHT22;7653;48.994;9.212;2023-01-13T00:15:06;10.70;38.10
15105;DHT22;7653;48.994;9.212;2023-01-13T00:17:32;10.70;38.20
15105;DHT22;7653;48.994;9.212;2023-01-13T00:19:58;10.70;38.10
15105;DHT22;7653;48.994;9.212;2023-01-13T00:22:24;10.60;38.40
15105;DHT22;7653;48.994;9.212;2023-01-13T00:24:49;10.60;38.80
15105;DHT22;7653;48.994;9.212;2023-01-13T00:27:15;10.50;39.50
15105;DHT22;7653;48.994;9.212;2023-01-13T00:29:40;10.50;39.90
15105;DHT22;7653;48.994;9.212;2023-01-13T00:32:06;10.40;41.00
15105;DHT22;7653;48.994;9.212;2023-01-13T00:34:32;10.40;41.00
15105;DHT22;7653;48.994;9.212;2023-01-13T00:36:57;10.40;41.00
15105;DHT22;7653;48.994;9.212;2023-01-13T00:39:23;10.30;40.90
15105;DHT22;7653;48.994;9.212;2023-01-13T00:41:48;10.30;40.90
15105;DHT22;7653;48.994;9.212;2023-01-13T00:44:37;10.30;41.00
15105;DHT22;7653;48.994;9.212;2023-01-13T00:47:03;10.20;41.80
15105;DHT22;7653;48.994;9.212;2023-01-13T00:49:28;10.20;42.10
15105;DHT22;7653;48.994;9.212;2023-01-13T00:51:54;10.20;41.90
15105;DHT22;7653;48.994;9.212;2023-01-13T00:54:20;10.20;42.20
15105;DHT22;7653;48.994;9.212;2023-01-13T00:56:45;10.20;42.10
15105;DHT22;7653;48.994;9.212;2023-01-13T00:59:12;10.20;42.00
15105;DHT22;7653;48.994;9.212;2023-01-13T01:01:38;10.30;41.40
15105;DHT22;7653;48.994;9.212;2023-01-13T01:04:04;10.20;41.90
15105;DHT22;7653;48.994;9.212;2023-01-13T01:06:30;10.20;42.20
15105;DHT22;7653;48.994;9.212;2023-01-13T01:08:56;10.20;42.20
15105;DHT22;7653;48.994;9.212;2023-01-13T01:11:27;10.20;42.00
15105;DHT22;7653;48.994;9.212;2023-01-13T01:13:55;10.10;42.00
15105;DHT22;7653;48.994;9.212;2023-01-13T01:16:22;10.20;40.90
15105;DHT22;7653;48.994;9.212;2023-01-13T01:18:49;10.30;41.10
15105;DHT22;7653;48.994;9.212;2023-01-13T01:21:16;10.30;41.00
15105;DHT22;7653;48.994;9.212;2023-01-13T01:23:42;10.30;40.90
15105;DHT22;7653;48.994;9.212;2023-01-13T01:26:21;10.40;41.00
15105;DHT22;7653;48.994;9.212;2023-01-13T01:28:47;10.40;41.00
15105;DHT22;7653;48.994;9.212;2023-01-13T01:31:19;10.40;41.00
15105;DHT22;7653;48.994;9.212;2023-01-13T01:33:44;10.40;41.00
15105;DHT22;7653;48.994;9.212;2023-01-13T01:36:15;10.40;41.00
15105;DHT22;7653;48.994;9.212;2023-01-13T01:38:41;10.40;41.00
15105;DHT22;7653;48.994;9.212;2023-01-13T01:41:08;10.50;41.10
15105;DHT22;7653;48.994;9.212;2023-01-13T01:43:56;10.50;40.50
15105;DHT22;7653;48.994;9.212;2023-01-13T01:49:31;10.70;39.50
15105;DHT22;7653;48.994;9.212;2023-01-13T01:57:10;10.70;39.40
15105;DHT22;7653;48.994;9.212;2023-01-13T01:59:38;10.60;40.30
15105;DHT22;7653;48.994;9.212;2023-01-13T02:02:04;10.60;40.30
15105;DHT22;7653;48.994;9.212;2023-01-13T02:04:33;10.60;40.40
15105;DHT22;7653;48.994;9.212;2023-01-13T02:07:02;10.60;41.20
15105;DHT22;7653;48.994;9.212;2023-01-13T02:09:29;10.60;40.60
15105;DHT22;7653;48.994;9.212;2023-01-13T02:11:55;10.60;40.70
15105;DHT22;7653;48.994;9.212;2023-01-13T02:14:40;10.60;40.30
15105;DHT22;7653;48.994;9.212;2023-01-13T02:17:32;10.60;40.50
15105;DHT22;7653;48.994;9.212;2023-01-13T02:26:20;10.60;41.20
15105;DHT22;7653;48.994;9.212;2023-01-13T02:31:41;10.60;41.20
15105;DHT22;7653;48.994;9.212;2023-01-13T02:37:19;10.60;41.70
15105;DHT22;7653;48.994;9.212;2023-01-13T02:40:05;10.60;41.40
15105;DHT22;7653;48.994;9.212;2023-01-13T02:42:34;10.60;41.20
15105;DHT22;7653;48.994;9.212;2023-01-13T02:45:29;10.60;41.20
15105;DHT22;7653;48.994;9.212;2023-01-13T02:47:58;10.70;41.30
15105;DHT22;7653;48.994;9.212;2023-01-13T02:50:34;10.70;41.30
15105;DHT22;7653;48.994;9.212;2023-01-13T02:53:11;10.70;41.30
15105;DHT22;7653;48.994;9.212;2023-01-13T02:55:43;10.60;41.20
15105;DHT22;7653;48.994;9.212;2023-01-13T02:58:14;10.70;41.30
15105;DHT22;7653;48.994;9.212;2023-01-13T03:00:42;10.70;41.30
15105;DHT22;7653;48.994;9.212;2023-01-13T03:03:08;10.60;41.20
15105;DHT22;7653;48.994;9.212;2023-01-13T03:05:34;10.70;41.30
15105;DHT22;7653;48.994;9.212;2023-01-13T03:11:04;10.70;41.30
15105;DHT22;7653;48.994;9.212;2023-01-13T03:25:06;10.70;41.30
15105;DHT22;7653;48.994;9.212;2023-01-13T03:30:26;10.70;42.20
15105;DHT22;7653;48.994;9.212;2023-01-13T03:33:00;10.70;41.50
15105;DHT22;7653;48.994;9.212;2023-01-13T03:35:33;10.60;41.90
15105;DHT22;7653;48.994;9.212;2023-01-13T03:38:28;10.60;42.20
15105;DHT22;7653;48.994;9.212;2023-01-13T03:41:00;10.60;42.60
15105;DHT22;7653;48.994;9.212;2023-01-13T03:43:30;10.60;42.70
15105;DHT22;7653;48.994;9.212;2023-01-13T03:46:25;10.60;43.20
15105;DHT22;7653;48.994;9.212;2023-01-13T03:48:55;10.50;42.30
15105;DHT22;7653;48.994;9.212;2023-01-13T03:51:24;10.60;42.60
15105;DHT22;7653;48.994;9.212;2023-01-13T03:53:56;10.50;42.70
15105;DHT22;7653;48.994;9.212;2023-01-13T03:56:28;10.50;43.00
15105;DHT22;7653;48.994;9.212;2023-01-13T03:58:57;10.50;43.10
15105;DHT22;7653;48.994;9.212;2023-01-13T04:04:50;10.50;42.40
15105;DHT22;7653;48.994;9.212;2023-01-13T04:10:09;10.60;42.50
15105;DHT22;7653;48.994;9.212;2023-01-13T04:12:41;10.60;42.20
15105;DHT22;7653;48.994;9.212;2023-01-13T04:15:30;10.60;42.30
15105;DHT22;7653;48.994;9.212;2023-01-13T04:20:44;10.60;42.60
15105;DHT22;7653;48.994;9.212;2023-01-13T04:23:10;10.60;42.10
15105;DHT22;7653;48.994;9.212;2023-01-13T04:25:38;10.70;42.40
15105;DHT22;7653;48.994;9.212;2023-01-13T04:28:04;10.60;42.20
15105;DHT22;7653;48.994;9.212;2023-01-13T04:30:30;10.60;43.00
15105;DHT22;7653;48.994;9.212;2023-01-13T04:32:56;10.60;42.70
15105;DHT22;7653;48.994;9.212;2023-01-13T04:35:21;10.60;43.40
15105;DHT22;7653;48.994;9.212;2023-01-13T04:37:47;10.60;42.10
15105;DHT22;7653;48.994;9.212;2023-01-13T04:40:13;10.60;42.50
15105;DHT22;7653;48.994;9.212;2023-01-13T04:42:38;10.60;42.40
15105;DHT22;7653;48.994;9.212;2023-01-13T04:45:04;10.60;42.80
15105;DHT22;7653;48.994;9.212;2023-01-13T04:47:30;10.60;42.20
15105;DHT22;7653;48.994;9.212;2023-01-13T04:49:56;10.60;41.90
15105;DHT22;7653;48.994;9.212;2023-01-13T04:52:21;10.50;42.80
15105;DHT22;7653;48.994;9.212;2023-01-13T04:54:47;10.50;43.10
15105;DHT22;7653;48.994;9.212;2023-01-13T04:57:12;10.50;42.90
15105;DHT22;7653;48.994;9.212;2023-01-13T04:59:38;10.50;41.80
15105;DHT22;7653;48.994;9.212;2023-01-13T05:02:06;10.60;42.70
15105;DHT22;7653;48.994;9.212;2023-01-13T05:04:33;10.60;41.70
15105;DHT22;7653;48.994;9.212;2023-01-13T05:06:59;10.60;41.50
15105;DHT22;7653;48.994;9.212;2023-01-13T05:09:25;10.60;41.80
15105;DHT22;7653;48.994;9.212;2023-01-13T05:11:50;10.60;41.90
15105;DHT22;7653;48.994;9.212;2023-01-13T05:14:35;10.60;41.20
15105;DHT22;7653;48.994;9.212;2023-01-13T05:17:21;10.60;41.20
15105;DHT22;7653;48.994;9.212;2023-01-13T05:19:47;10.60;41.20
15105;DHT22;7653;48.994;9.212;2023-01-13T05:22:13;10.60;41.20
15105;DHT22;7653;48.994;9.212;2023-01-13T05:24:57;10.60;42.10
15105;DHT22;7653;48.994;9.212;2023-01-13T05:27:41;10.60;42.00
15105;DHT22;7653;48.994;9.212;2023-01-13T05:30:07;10.60;41.20
15105;DHT22;7653;48.994;9.212;2023-01-13T05:32:33;10.60;41.20
15105;DHT22;7653;48.994;9.212;2023-01-13T05:34:59;10.70;41.30
15105;DHT22;7653;48.994;9.212;2023-01-13T05:37:25;10.70;41.30
15105;DHT22;7653;48.994;9.212;2023-01-13T05:39:51;10.60;42.10
15105;DHT22;7653;48.994;9.212;2023-01-13T05:42:35;10.60;42.00
15105;DHT22;7653;48.994;9.212;2023-01-13T05:45:19;10.50;42.20
15105;DHT22;7653;48.994;9.212;2023-01-13T05:47:45;10.60;42.00
15105;DHT22;7653;48.994;9.212;2023-01-13T05:50:14;10.50;42.10
15105;DHT22;7653;48.994;9.212;2023-01-13T05:52:40;10.50;41.50
15105;DHT22;7653;48.994;9.212;2023-01-13T05:55:06;10.50;41.10
15105;DHT22;7653;48.994;9.212;2023-01-13T05:57:32;10.60;41.20
15105;DHT22;7653;48.994;9.212;2023-01-13T05:59:57;10.60;41.80
15105;DHT22;7653;48.994;9.212;2023-01-13T06:02:23;10.60;41.20
15105;DHT22;7653;48.994;9.212;2023-01-13T06:04:51;10.60;41.20
15105;DHT22;7653;48.994;9.212;2023-01-13T06:07:16;10.70;41.40
15105;DHT22;7653;48.994;9.212;2023-01-13T06:09:42;10.60;41.20
15105;DHT22;7653;48.994;9.212;2023-01-13T06:12:10;10.50;41.50
15105;DHT22;7653;48.994;9.212;2023-01-13T06:14:36;10.50;41.50
15105;DHT22;7653;48.994;9.212;2023-01-13T06:17:09;10.60;41.30
15105;DHT22;7653;48.994;9.212;2023-01-13T06:19:35;10.50;42.00
15105;DHT22;7653;48.994;9.212;2023-01-13T06:22:12;10.50;42.10
15105;DHT22;7653;48.994;9.212;2023-01-13T06:24:38;10.50;42.30
15105;DHT22;7653;48.994;9.212;2023-01-13T06:27:05;10.50;41.90
15105;DHT22;7653;48.994;9.212;2023-01-13T06:29:32;10.50;42.80
15105;DHT22;7653;48.994;9.212;2023-01-13T06:31:59;10.50;42.60
15105;DHT22;7653;48.994;9.212;2023-01-13T06:34:26;10.50;42.80
15105;DHT22;7653;48.994;9.212;2023-01-13T06:36:53;10.50;42.60
15105;DHT22;7653;48.994;9.212;2023-01-13T06:39:23;10.50;42.60
15105;DHT22;7653;48.994;9.212;2023-01-13T06:41:50;10.50;42.50
15105;DHT22;7653;48.994;9.212;2023-01-13T06:44:35;10.50;42.40
15105;DHT22;7653;48.994;9.212;2023-01-13T06:47:01;10.50;42.70
15105;DHT22;7653;48.994;9.212;2023-01-13T06:49:26;10.50;42.80
15105;DHT22;7653;48.994;9.212;2023-01-13T06:51:52;10.50;42.80
15105;DHT22;7653;48.994;9.212;2023-01-13T06:54:17;10.50;42.90
15105;DHT22;7653;48.994;9.212;2023-01-13T06:56:43;10.50;43.30
15105;DHT22;7653;48.994;9.212;2023-01-13T06:59:09;10.50;43.90
15105;DHT22;7653;48.994;9.212;2023-01-13T07:01:34;10.50;44.20
15105;DHT22;7653;48.994;9.212;2023-01-13T07:04:00;10.40;44.80
15105;DHT22;7653;48.994;9.212;2023-01-13T07:06:27;10.40;45.20
15105;DHT22;7653;48.994;9.212;2023-01-13T07:08:53;10.50;44.10
15105;DHT22;7653;48.994;9.212;2023-01-13T07:11:19;10.50;44.40
15105;DHT22;7653;48.994;9.212;2023-01-13T07:13:44;10.40;44.60
15105;DHT22;7653;48.994;9.212;2023-01-13T07:16:28;10.40;44.50
15105;DHT22;7653;48.994;9.212;2023-01-13T07:18:54;10.50;44.80
15105;DHT22;7653;48.994;9.212;2023-01-13T07:21:20;10.50;46.10
15105;DHT22;7653;48.994;9.212;2023-01-13T07:23:46;10.40;47.60
15105;DHT22;7653;48.994;9.212;2023-01-13T07:26:13;10.40;47.80
15105;DHT22;7653;48.994;9.212;2023-01-13T07:28:39;10.30;48.40
15105;DHT22;7653;48.994;9.212;2023-01-13T07:31:15;10.40;47.90
15105;DHT22;7653;48.994;9.212;2023-01-13T07:33:42;10.30;47.70
15105;DHT22;7653;48.994;9.212;2023-01-13T07:36:08;10.30;47.70
15105;DHT22;7653;48.994;9.212;2023-01-13T07:38:34;10.30;47.10
15105;DHT22;7653;48.994;9.212;2023-01-13T07:41:00;10.40;47.50
15105;DHT22;7653;48.994;9.212;2023-01-13T07:43:44;10.40;47.30
15105;DHT22;7653;48.994;9.212;2023-01-13T07:46:10;10.30;47.80
15105;DHT22;7653;48.994;9.212;2023-01-13T07:48:36;10.40;46.60
15105;DHT22;7653;48.994;9.212;2023-01-13T07:51:03;10.40;47.50
15105;DHT22;7653;48.994;9.212;2023-01-13T07:53:28;10.40;46.90
15105;DHT22;7653;48.994;9.212;2023-01-13T07:55:55;10.40;47.30
15105;DHT22;7653;48.994;9.212;2023-01-13T07:58:21;10.40;46.80
15105;DHT22;7653;48.994;9.212;2023-01-13T08:00:47;10.40;46.50
15105;DHT22;7653;48.994;9.212;2023-01-13T08:03:13;10.40;46.80
15105;DHT22;7653;48.994;9.212;2023-01-13T08:05:38;10.40;47.40
15105;DHT22;7653;48.994;9.212;2023-01-13T08:08:04;10.40;46.80
15105;DHT22;7653;48.994;9.212;2023-01-13T08:10:30;10.40;46.20
15105;DHT22;7653;48.994;9.212;2023-01-13T08:12:55;10.40;47.70
15105;DHT22;7653;48.994;9.212;2023-01-13T08:15:39;10.40;50.70
15105;DHT22;7653;48.994;9.212;2023-01-13T08:18:05;10.40;50.80
15105;DHT22;7653;48.994;9.212;2023-01-13T08:20:31;10.20;55.00
15105;DHT22;7653;48.994;9.212;2023-01-13T08:22:57;10.20;56.10
15105;DHT22;7653;48.994;9.212;2023-01-13T08:25:24;10.10;59.10
15105;DHT22;7653;48.994;9.212;2023-01-13T08:27:51;10.00;59.90
15105;DHT22;7653;48.994;9.212;2023-01-13T08:30:18;9.80;59.70
15105;DHT22;7653;48.994;9.212;2023-01-13T08:32:45;9.20;66.80
15105;DHT22;7653;48.994;9.212;2023-01-13T08:35:12;8.90;76.10
15105;DHT22;7653;48.994;9.212;2023-01-13T08:37:37;8.50;86.10
15105;DHT22;7653;48.994;9.212;2023-01-13T08:40:04;8.20;92.30
15105;DHT22;7653;48.994;9.212;2023-01-13T08:42:30;8.20;92.80
15105;DHT22;7653;48.994;9.212;2023-01-13T08:44:55;8.20;92.80
15105;DHT22;7653;48.994;9.212;2023-01-13T08:47:22;8.20;93.90
15105;DHT22;7653;48.994;9.212;2023-01-13T08:49:48;8.20;94.80
15105;DHT22;7653;48.994;9.212;2023-01-13T08:52:14;8.20;94.90
15105;DHT22;7653;48.994;9.212;2023-01-13T08:54:39;8.20;95.00
15105;DHT22;7653;48.994;9.212;2023-01-13T08:57:05;8.20;95.70
15105;DHT22;7653;48.994;9.212;2023-01-13T08:59:31;8.10;94.70
15105;DHT22;7653;48.994;9.212;2023-01-13T09:01:57;8.20;93.60
15105;DHT22;7653;48.994;9.212;2023-01-13T09:04:24;8.20;92.80
15105;DHT22;7653;48.994;9.212;2023-01-13T09:06:50;8.20;92.30
15105;DHT22;7653;48.994;9.212;2023-01-13T09:09:16;8.30;92.80
15105;DHT22;7653;48.994;9.212;2023-01-13T09:11:45;8.30;92.80
15105;DHT22;7653;48.994;9.212;2023-01-13T09:14:32;8.30;92.60
15105;DHT22;7653;48.994;9.212;2023-01-13T09:16:59;8.30;91.30
15105;DHT22;7653;48.994;9.212;2023-01-13T09:19:25;8.40;92.00
15105;DHT22;7653;48.994;9.212;2023-01-13T09:21:51;8.40;91.50
15105;DHT22;7653;48.994;9.212;2023-01-13T09:24:18;8.40;91.80
15105;DHT22;7653;48.994;9.212;2023-01-13T09:26:44;8.50;88.70
15105;DHT22;7653;48.994;9.212;2023-01-13T09:29:09;8.60;89.60
15105;DHT22;7653;48.994;9.212;2023-01-13T09:31:35;8.70;89.20
15105;DHT22;7653;48.994;9.212;2023-01-13T09:34:02;8.70;90.40
15105;DHT22;7653;48.994;9.212;2023-01-13T09:36:46;8.80;90.30
15105;DHT22;7653;48.994;9.212;2023-01-13T09:39:12;8.80;89.20
15105;DHT22;7653;48.994;9.212;2023-01-13T09:41:44;8.80;90.10
15105;DHT22;7653;48.994;9.212;2023-01-13T09:44:40;8.80;90.00
15105;DHT22;7653;48.994;9.212;2023-01-13T09:47:44;8.80;83.10
15105;DHT22;7653;48.994;9.212;2023-01-13T09:50:22;8.80;82.90
15105;DHT22;7653;48.994;9.212;2023-01-13T09:52:48;8.90;83.50
15105;DHT22;7653;48.994;9.212;2023-01-13T09:55:24;8.90;83.50
15105;DHT22;7653;48.994;9.212;2023-01-13T09:57:51;9.00;84.40
15105;DHT22;7653;48.994;9.212;2023-01-13T10:00:21;8.90;82.80
15105;DHT22;7653;48.994;9.212;2023-01-13T10:08:01;9.00;77.50
15105;DHT22;7653;48.994;9.212;2023-01-13T10:10:54;9.10;76.50
15105;DHT22;7653;48.994;9.212;2023-01-13T10:13:28;9.10;74.40
15105;DHT22;7653;48.994;9.212;2023-01-13T10:16:07;9.10;76.00
15105;DHT22;7653;48.994;9.212;2023-01-13T10:19:04;9.20;75.00
15105;DHT22;7653;48.994;9.212;2023-01-13T10:29:31;9.20;71.90
15105;DHT22;7653;48.994;9.212;2023-01-13T10:31:58;9.30;74.90
15105;DHT22;7653;48.994;9.212;2023-01-13T10:34:25;9.30;70.30
15105;DHT22;7653;48.994;9.212;2023-01-13T10:39:24;9.40;64.10
15105;DHT22;7653;48.994;9.212;2023-01-13T10:42:03;9.40;63.40
15105;DHT22;7653;48.994;9.212;2023-01-13T10:44:29;9.50;64.60
15105;DHT22;7653;48.994;9.212;2023-01-13T10:46:57;9.40;66.40
15105;DHT22;7653;48.994;9.212;2023-01-13T10:49:36;9.50;60.40
15105;DHT22;7653;48.994;9.212;2023-01-13T10:52:23;9.40;60.30
15105;DHT22;7653;48.994;9.212;2023-01-13T10:54:53;9.40;64.90
15105;DHT22;7653;48.994;9.212;2023-01-13T10:57:24;9.40;65.00
15105;DHT22;7653;48.994;9.212;2023-01-13T10:59:51;9.20;62.90
15105;DHT22;7653;48.994;9.212;2023-01-13T11:07:39;9.20;65.90
15105;DHT22;7653;48.994;9.212;2023-01-13T11:12:38;9.30;63.40
15105;DHT22;7653;48.994;9.212;2023-01-13T11:15:10;9.30;61.70
15105;DHT22;7653;48.994;9.212;2023-01-13T11:17:41;9.30;63.70
15105;DHT22;7653;48.994;9.212;2023-01-13T11:22:39;9.40;64.10
15105;DHT22;7653;48.994;9.212;2023-01-13T11:25:14;9.30;65.10
15105;DHT22;7653;48.994;9.212;2023-01-13T11:35:39;9.20;64.00
15105;DHT22;7653;48.994;9.212;2023-01-13T11:46:32;9.30;64.70
15105;DHT22;7653;48.994;9.212;2023-01-13T11:48:59;9.30;67.90
15105;DHT22;7653;48.994;9.212;2023-01-13T11:51:35;9.30;61.90
15105;DHT22;7653;48.994;9.212;2023-01-13T12:02:31;9.50;58.60
15105;DHT22;7653;48.994;9.212;2023-01-13T12:05:18;9.40;56.40
15105;DHT22;7653;48.994;9.212;2023-01-13T12:19:18;9.70;51.20
15105;DHT22;7653;48.994;9.212;2023-01-13T12:22:08;9.90;54.30
15105;DHT22;7653;48.994;9.212;2023-01-13T12:24:40;9.80;52.90
15105;DHT22;7653;48.994;9.212;2023-01-13T12:29:37;9.60;51.10
15105;DHT22;7653;48.994;9.212;2023-01-13T12:32:13;9.70;51.30
15105;DHT22;7653;48.994;9.212;2023-01-13T12:34:52;9.60;50.40
15105;DHT22;7653;48.994;9.212;2023-01-13T12:43:18;9.00;58.00
15105;DHT22;7653;48.994;9.212;2023-01-13T12:51:33;8.10;55.00
15105;DHT22;7653;48.994;9.212;2023-01-13T12:54:01;7.90;62.10
15105;DHT22;7653;48.994;9.212;2023-01-13T12:56:39;7.70;70.40
15105;DHT22;7653;48.994;9.212;2023-01-13T13:01:46;7.70;68.50
15105;DHT22;7653;48.994;9.212;2023-01-13T13:04:17;7.70;68.50
15105;DHT22;7653;48.994;9.212;2023-01-13T13:06:52;7.90;68.10
15105;DHT22;7653;48.994;9.212;2023-01-13T13:09:39;8.10;62.10
15105;DHT22;7653;48.994;9.212;2023-01-13T13:15:24;8.30;59.40
15105;DHT22;7653;48.994;9.212;2023-01-13T13:21:00;8.50;56.70
15105;DHT22;7653;48.994;9.212;2023-01-13T13:26:22;8.80;57.10
15105;DHT22;7653;48.994;9.212;2023-01-13T13:39:40;9.90;51.30
15105;DHT22;7653;48.994;9.212;2023-01-13T13:42:27;9.90;48.30
15105;DHT22;7653;48.994;9.212;2023-01-13T13:45:24;9.70;49.40
15105;DHT22;7653;48.994;9.212;2023-01-13T13:50:48;9.20;53.70
15105;DHT22;7653;48.994;9.212;2023-01-13T13:53:14;9.00;54.50
15105;DHT22;7653;48.994;9.212;2023-01-13T13:55:54;8.90;55.20
15105;DHT22;7653;48.994;9.212;2023-01-13T13:58:20;8.80;59.80
15105;DHT22;7653;48.994;9.212;2023-01-13T14:00:47;8.40;58.70
15105;DHT22;7653;48.994;9.212;2023-01-13T14:03:31;8.20;57.40
15105;DHT22;7653;48.994;9.212;2023-01-13T14:05:59;8.10;61.90
15105;DHT22;7653;48.994;9.212;2023-01-13T14:08:28;8.00;59.20
15105;DHT22;7653;48.994;9.212;2023-01-13T14:10:55;7.90;64.20
15105;DHT22;7653;48.994;9.212;2023-01-13T14:15:49;8.00;60.80
15105;DHT22;7653;48.994;9.212;2023-01-13T14:18:19;8.10;63.20
15105;DHT22;7653;48.994;9.212;2023-01-13T14:23:49;8.20;59.40
15105;DHT22;7653;48.994;9.212;2023-01-13T14:26:15;8.30;59.40
15105;DHT22;7653;48.994;9.212;2023-01-13T14:28:41;8.50;56.10
15105;DHT22;7653;48.994;9.212;2023-01-13T14:31:08;8.80;54.10
15105;DHT22;7653;48.994;9.212;2023-01-13T14:36:06;9.00;50.50
15105;DHT22;7653;48.994;9.212;2023-01-13T14:38:36;9.00;51.90
15105;DHT22;7653;48.994;9.212;2023-01-13T14:41:19;8.90;49.70
15105;DHT22;7653;48.994;9.212;2023-01-13T14:43:47;8.90;50.40
15105;DHT22;7653;48.994;9.212;2023-01-13T14:46:13;8.80;48.40
15105;DHT22;7653;48.994;9.212;2023-01-13T14:48:40;8.80;49.80
15105;DHT22;7653;48.994;9.212;2023-01-13T14:51:13;8.80;49.10
15105;DHT22;7653;48.994;9.212;2023-01-13T14:53:46;8.80;47.40
15105;DHT22;7653;48.994;9.212;2023-01-13T15:10:25;8.40;55.40
15105;DHT22;7653;48.994;9.212;2023-01-13T15:12:54;8.50;52.50
15105;DHT22;7653;48.994;9.212;2023-01-13T15:17:55;8.50;52.20
15105;DHT22;7653;48.994;9.212;2023-01-13T15:20:22;8.50;50.10
15105;DHT22;7653;48.994;9.212;2023-01-13T15:22:49;8.50;50.10
15105;DHT22;7653;48.994;9.212;2023-01-13T15:25:15;8.40;50.00
15105;DHT22;7653;48.994;9.212;2023-01-13T15:27:43;8.30;50.70
15105;DHT22;7653;48.994;9.212;2023-01-13T15:30:22;8.30;49.90
15105;DHT22;7653;48.994;9.212;2023-01-13T15:32:55;8.30;48.40
15105;DHT22;7653;48.994;9.212;2023-01-13T15:35:22;8.30;47.50
15105;DHT22;7653;48.994;9.212;2023-01-13T15:37:49;8.30;48.00
15105;DHT22;7653;48.994;9.212;2023-01-13T15:40:20;8.30;45.90
15105;DHT22;7653;48.994;9.212;2023-01-13T15:42:47;8.30;45.80
15105;DHT22;7653;48.994;9.212;2023-01-13T15:45:33;8.30;45.60
15105;DHT22;7653;48.994;9.212;2023-01-13T15:48:22;8.30;45.20
15105;DHT22;7653;48.994;9.212;2023-01-13T15:50:49;8.30;46.20
15105;DHT22;7653;48.994;9.212;2023-01-13T15:53:15;8.30;45.10
15105;DHT22;7653;48.994;9.212;2023-01-13T15:55:42;8.30;45.30
15105;DHT22;7653;48.994;9.212;2023-01-13T15:58:13;8.20;47.20
15105;DHT22;7653;48.994;9.212;2023-01-13T16:00:40;8.00;47.60
15105;DHT22;7653;48.994;9.212;2023-01-13T16:03:10;8.00;46.40
15105;DHT22;7653;48.994;9.212;2023-01-13T16:05:36;8.00;47.80
15105;DHT22;7653;48.994;9.212;2023-01-13T16:08:02;8.00;47.00
15105;DHT22;7653;48.994;9.212;2023-01-13T16:10:27;8.00;46.40
15105;DHT22;7653;48.994;9.212;2023-01-13T16:12:53;8.00;45.70
15105;DHT22;7653;48.994;9.212;2023-01-13T16:15:22;8.10;46.10
15105;DHT22;7653;48.994;9.212;2023-01-13T16:17:54;8.00;45.20
15105;DHT22;7653;48.994;9.212;2023-01-13T16:20:20;8.10;45.80
15105;DHT22;7653;48.994;9.212;2023-01-13T16:22:45;8.00;46.50
15105;DHT22;7653;48.994;9.212;2023-01-13T16:25:23;8.00;45.50
15105;DHT22;7653;48.994;9.212;2023-01-13T16:27:50;8.00;45.30
15105;DHT22;7653;48.994;9.212;2023-01-13T16:30:32;7.90;46.30
15105;DHT22;7653;48.994;9.212;2023-01-13T16:32:58;7.90;46.00
15105;DHT22;7653;48.994;9.212;2023-01-13T16:35:24;7.90;46.40
15105;DHT22;7653;48.994;9.212;2023-01-13T16:37:50;7.90;45.60
15105;DHT22;7653;48.994;9.212;2023-01-13T16:40:23;7.90;46.00
15105;DHT22;7653;48.994;9.212;2023-01-13T16:42:50;7.80;47.00
15105;DHT22;7653;48.994;9.212;2023-01-13T16:45:16;7.80;47.00
15105;DHT22;7653;48.994;9.212;2023-01-13T16:47:41;7.70;48.20
15105;DHT22;7653;48.994;9.212;2023-01-13T16:50:22;7.70;47.80
15105;DHT22;7653;48.994;9.212;2023-01-13T16:52:52;7.80;47.50
15105;DHT22;7653;48.994;9.212;2023-01-13T16:55:17;7.80;48.60
15105;DHT22;7653;48.994;9.212;2023-01-13T16:57:43;7.80;48.50
15105;DHT22;7653;48.994;9.212;2023-01-13T17:00:10;7.70;48.90
15105;DHT22;7653;48.994;9.212;2023-01-13T17:02:36;7.80;48.30
15105;DHT22;7653;48.994;9.212;2023-01-13T17:05:02;7.80;48.50
15105;DHT22;7653;48.994;9.212;2023-01-13T17:07:28;7.70;49.50
15105;DHT22;7653;48.994;9.212;2023-01-13T17:09:54;7.60;50.30
15105;DHT22;7653;48.994;9.212;2023-01-13T17:12:19;7.60;49.40
15105;DHT22;7653;48.994;9.212;2023-01-13T17:14:45;7.60;49.30
15105;DHT22;7653;48.994;9.212;2023-01-13T17:17:40;7.70;49.40
15105;DHT22;7653;48.994;9.212;2023-01-13T17:20:10;7.70;49.40
15105;DHT22;7653;48.994;9.212;2023-01-13T17:22:36;7.60;49.40
15105;DHT22;7653;48.994;9.212;2023-01-13T17:25:02;7.60;49.30
15105;DHT22;7653;48.994;9.212;2023-01-13T17:27:28;7.60;49.30
15105;DHT22;7653;48.994;9.212;2023-01-13T17:29:53;7.60;49.80
15105;DHT22;7653;48.994;9.212;2023-01-13T17:32:20;7.60;51.60
15105;DHT22;7653;48.994;9.212;2023-01-13T17:34:47;7.60;52.20
15105;DHT22;7653;48.994;9.212;2023-01-13T17:37:13;7.60;52.80
15105;DHT22;7653;48.994;9.212;2023-01-13T17:39:40;7.50;51.40
15105;DHT22;7653;48.994;9.212;2023-01-13T17:42:08;7.50;52.60
15105;DHT22;7653;48.994;9.212;2023-01-13T17:44:33;7.50;52.60
15105;DHT22;7653;48.994;9.212;2023-01-13T17:46:59;7.50;52.10
15105;DHT22;7653;48.994;9.212;2023-01-13T17:49:24;7.60;50.20
15105;DHT22;7653;48.994;9.212;2023-01-13T17:51:50;7.70;49.10
15105;DHT22;7653;48.994;9.212;2023-01-13T17:54:16;7.70;49.40
15105;DHT22;7653;48.994;9.212;2023-01-13T17:56:42;7.80;46.90
15105;DHT22;7653;48.994;9.212;2023-01-13T17:59:10;7.90;46.70
15105;DHT22;7653;48.994;9.212;2023-01-13T18:01:37;7.90;46.30
15105;DHT22;7653;48.994;9.212;2023-01-13T18:04:03;7.90;46.50
15105;DHT22;7653;48.994;9.212;2023-01-13T18:06:31;7.90;47.60
15105;DHT22;7653;48.994;9.212;2023-01-13T18:08:58;8.00;46.80
15105;DHT22;7653;48.994;9.212;2023-01-13T18:11:24;7.90;46.30
15105;DHT22;7653;48.994;9.212;2023-01-13T18:13:51;8.00;45.20
15105;DHT22;7653;48.994;9.212;2023-01-13T18:16:19;8.10;43.70
15105;DHT22;7653;48.994;9.212;2023-01-13T18:18:47;8.10;43.80
15105;DHT22;7653;48.994;9.212;2023-01-13T18:24:04;8.20;42.60
15105;DHT22;7653;48.994;9.212;2023-01-13T18:26:49;8.30;41.90
15105;DHT22;7653;48.994;9.212;2023-01-13T18:29:34;8.30;41.10
15105;DHT22;7653;48.994;9.212;2023-01-13T18:31:59;8.30;40.20
15105;DHT22;7653;48.994;9.212;2023-01-13T18:34:25;8.40;40.30
15105;DHT22;7653;48.994;9.212;2023-01-13T18:36:51;8.40;39.90
15105;DHT22;7653;48.994;9.212;2023-01-13T18:39:17;8.40;38.80
15105;DHT22;7653;48.994;9.212;2023-01-13T18:41:43;8.40;36.90
15105;DHT22;7653;48.994;9.212;2023-01-13T18:44:27;8.50;38.10
15105;DHT22;7653;48.994;9.212;2023-01-13T18:46:52;8.40;37.50
15105;DHT22;7653;48.994;9.212;2023-01-13T18:49:18;8.40;38.20
15105;DHT22;7653;48.994;9.212;2023-01-13T18:51:44;8.40;37.30
15105;DHT22;7653;48.994;9.212;2023-01-13T18:54:09;8.40;38.10
15105;DHT22;7653;48.994;9.212;2023-01-13T18:56:35;8.40;38.30
15105;DHT22;7653;48.994;9.212;2023-01-13T18:59:02;8.40;38.00
15105;DHT22;7653;48.994;9.212;2023-01-13T19:01:28;8.40;37.90
15105;DHT22;7653;48.994;9.212;2023-01-13T19:03:57;8.30;38.90
15105;DHT22;7653;48.994;9.212;2023-01-13T19:06:24;8.30;40.20